Airfield :
LOGIN :

Register | Disclaimer

   EN    FR    IT 

 










Legend :    VFR   Marginal VFR   IFR   Intensive IFR   Very Intensive IFR
Visi :
Ceiling :
>= 8 km
>= 3000ft
5 to 8 km
1000 to 3000 ft
1500m to 5 km
500 to 1000 ft
800 to 1500m
200 to 500 ft
< 800m
< 200 ft
Symbols :   Thunderstorms  Fog  Heavy snow  Heavy precipitations  Wind > 20 kt
SIGMETs :     Misc.  Thunderstorms  Icing  Turbulence  Mountain Waves  Volcanic Ashes







- Airport Elevation : 313 ft
- Download approach charts


LFQA - Reims-Prunay

CURRENT METAR :
  • 171430Z AUTO 32011KT 280V010 CAVOK 24/10 Q1019

EXPIRED METARs :
  • 171400Z AUTO 34012KT 310V020 CAVOK 24/10 Q1019
  • 171330Z AUTO 34012KT CAVOK 23/10 Q1019
  • 171300Z AUTO 33011KT 9999 FEW046 24/11 Q1019
  • 171230Z AUTO 33013KT 300V020 CAVOK 23/12 Q1019
  • 171200Z AUTO 33011KT 290V350 CAVOK 23/12 Q1019
  • 171130Z AUTO 33011KT 310V010 9999 FEW029 22/13 Q1019

TAF N/A
No reported NOTAMs for that airfield.
1 SIGMET reported for the Paris FIR (LFFF) :
 
Severe turbulence
LFFF SIGMET 7 VALID 171400/171800 LFPW
LFFF PARIS FIR/UIR SEV TURB FCST WI N4630 E00245 - N4715 E00200 - N4715 E00130 - N5000 E00430 - N4930 E00600 - N4900 E00445 - N4845 E00515 - N4645 E00300 - N4630 E00245 FL230/340 MOV E 10KT NC=



MET'MAP, your aeronautical weather chart ! - Copyright ORBIFLY December 2007 - Disclaimer

ORBIFLY MET'MAP TEAM :

Programming & Development : Alexandra Zaïnal
Concept & Development : Baudouin d'Aumeries
Co-Development & Prog : Marc-Olivier Méhu
Technical & hardware support : Manuel Goepfert

Contact : metmap@orbifly.com




SOURCES & CREDITS :

   NOAA